sensor_id;sensor_type;location;lat;lon;timestamp;P1;P2;P0
46240;PMS5003;31961;52.416;-0.732;2022-12-18T00:01:14;45;38;
46240;PMS5003;31961;52.416;-0.732;2022-12-18T00:03:42;40;40;
46240;PMS5003;31961;52.416;-0.732;2022-12-18T00:06:11;47;42;
46240;PMS5003;31961;52.416;-0.732;2022-12-18T00:08:38;49;44;
46240;PMS5003;31961;52.416;-0.732;2022-12-18T00:11:08;53;43;
46240;PMS5003;31961;52.416;-0.732;2022-12-18T00:13:37;56;47;
46240;PMS5003;31961;52.416;-0.732;2022-12-18T00:16:05;54;47;
46240;PMS5003;31961;52.416;-0.732;2022-12-18T00:18:34;53;44;
46240;PMS5003;31961;52.416;-0.732;2022-12-18T00:21:02;54;48;
46240;PMS5003;31961;52.416;-0.732;2022-12-18T00:23:32;46;41;
46240;PMS5003;31961;52.416;-0.732;2022-12-18T00:26:00;51;42;
46240;PMS5003;31961;52.416;-0.732;2022-12-18T00:28:28;51;41;
46240;PMS5003;31961;52.416;-0.732;2022-12-18T00:30:59;54;45;
46240;PMS5003;31961;52.416;-0.732;2022-12-18T00:33:27;54;47;
46240;PMS5003;31961;52.416;-0.732;2022-12-18T00:35:54;51;49;
46240;PMS5003;31961;52.416;-0.732;2022-12-18T00:38:26;54;44;
46240;PMS5003;31961;52.416;-0.732;2022-12-18T00:40:53;56;46;
46240;PMS5003;31961;52.416;-0.732;2022-12-18T00:43:21;54;47;
46240;PMS5003;31961;52.416;-0.732;2022-12-18T00:45:48;56;50;
46240;PMS5003;31961;52.416;-0.732;2022-12-18T00:48:15;58;51;
46240;PMS5003;31961;52.416;-0.732;2022-12-18T00:50:43;69;54;
46240;PMS5003;31961;52.416;-0.732;2022-12-18T00:53:10;57;53;
46240;PMS5003;31961;52.416;-0.732;2022-12-18T00:55:38;60;55;
46240;PMS5003;31961;52.416;-0.732;2022-12-18T00:58:07;60;50;
46240;PMS5003;31961;52.416;-0.732;2022-12-18T01:00:35;61;51;
46240;PMS5003;31961;52.416;-0.732;2022-12-18T01:03:02;58;55;
46240;PMS5003;31961;52.416;-0.732;2022-12-18T01:05:30;52;45;
46240;PMS5003;31961;52.416;-0.732;2022-12-18T01:07:58;56;51;
46240;PMS5003;31961;52.416;-0.732;2022-12-18T01:10:25;64;47;
46240;PMS5003;31961;52.416;-0.732;2022-12-18T01:12:53;59;52;
46240;PMS5003;31961;52.416;-0.732;2022-12-18T01:15:22;53;48;
46240;PMS5003;31961;52.416;-0.732;2022-12-18T01:17:49;48;46;
46240;PMS5003;31961;52.416;-0.732;2022-12-18T01:20:19;61;48;
46240;PMS5003;31961;52.416;-0.732;2022-12-18T01:22:47;53;46;
46240;PMS5003;31961;52.416;-0.732;2022-12-18T01:25:14;56;50;
46240;PMS5003;31961;52.416;-0.732;2022-12-18T01:27:41;57;47;
46240;PMS5003;31961;52.416;-0.732;2022-12-18T01:30:10;57;45;
46240;PMS5003;31961;52.416;-0.732;2022-12-18T01:32:38;56;51;
46240;PMS5003;31961;52.416;-0.732;2022-12-18T01:35:05;66;52;
46240;PMS5003;31961;52.416;-0.732;2022-12-18T01:37:33;54;51;
46240;PMS5003;31961;52.416;-0.732;2022-12-18T01:40:00;56;44;
46240;PMS5003;31961;52.416;-0.732;2022-12-18T01:42:27;56;45;
46240;PMS5003;31961;52.416;-0.732;2022-12-18T01:44:56;54;48;
46240;PMS5003;31961;52.416;-0.732;2022-12-18T01:47:26;56;53;
46240;PMS5003;31961;52.416;-0.732;2022-12-18T01:49:59;56;50;
46240;PMS5003;31961;52.416;-0.732;2022-12-18T01:52:29;62;52;
46240;PMS5003;31961;52.416;-0.732;2022-12-18T01:54:59;61;50;
46240;PMS5003;31961;52.416;-0.732;2022-12-18T01:57:28;50;43;
46240;PMS5003;31961;52.416;-0.732;2022-12-18T01:59:56;52;45;
46240;PMS5003;31961;52.416;-0.732;2022-12-18T02:02:28;55;46;
46240;PMS5003;31961;52.416;-0.732;2022-12-18T02:04:56;52;49;
46240;PMS5003;31961;52.416;-0.732;2022-12-18T02:07:24;56;48;
46240;PMS5003;31961;52.416;-0.732;2022-12-18T02:10:03;52;43;
46240;PMS5003;31961;52.416;-0.732;2022-12-18T02:12:36;59;51;
46240;PMS5003;31961;52.416;-0.732;2022-12-18T02:15:12;52;47;
46240;PMS5003;31961;52.416;-0.732;2022-12-18T02:17:47;50;47;
46240;PMS5003;31961;52.416;-0.732;2022-12-18T02:20:21;46;45;
46240;PMS5003;31961;52.416;-0.732;2022-12-18T02:23:01;56;47;
46240;PMS5003;31961;52.416;-0.732;2022-12-18T02:25:42;48;44;
46240;PMS5003;31961;52.416;-0.732;2022-12-18T02:28:30;55;46;
46240;PMS5003;31961;52.416;-0.732;2022-12-18T02:31:01;53;47;
46240;PMS5003;31961;52.416;-0.732;2022-12-18T02:33:32;55;48;
46240;PMS5003;31961;52.416;-0.732;2022-12-18T02:36:01;57;51;
46240;PMS5003;31961;52.416;-0.732;2022-12-18T02:38:31;51;43;
46240;PMS5003;31961;52.416;-0.732;2022-12-18T02:41:00;55;46;
46240;PMS5003;31961;52.416;-0.732;2022-12-18T02:43:29;43;38;
46240;PMS5003;31961;52.416;-0.732;2022-12-18T02:45:57;48;39;
46240;PMS5003;31961;52.416;-0.732;2022-12-18T02:48:27;52;47;
46240;PMS5003;31961;52.416;-0.732;2022-12-18T02:50:59;56;52;
46240;PMS5003;31961;52.416;-0.732;2022-12-18T02:53:33;52;43;
46240;PMS5003;31961;52.416;-0.732;2022-12-18T02:56:09;56;46;
46240;PMS5003;31961;52.416;-0.732;2022-12-18T02:58:46;53;46;
46240;PMS5003;31961;52.416;-0.732;2022-12-18T03:01:24;62;55;
46240;PMS5003;31961;52.416;-0.732;2022-12-18T03:03:57;60;55;
46240;PMS5003;31961;52.416;-0.732;2022-12-18T03:06:29;60;54;
46240;PMS5003;31961;52.416;-0.732;2022-12-18T03:09:08;65;57;
46240;PMS5003;31961;52.416;-0.732;2022-12-18T03:11:40;69;59;
46240;PMS5003;31961;52.416;-0.732;2022-12-18T03:14:11;65;58;
46240;PMS5003;31961;52.416;-0.732;2022-12-18T03:16:42;61;54;
46240;PMS5003;31961;52.416;-0.732;2022-12-18T03:19:11;58;50;
46240;PMS5003;31961;52.416;-0.732;2022-12-18T03:21:43;61;54;
46240;PMS5003;31961;52.416;-0.732;2022-12-18T03:24:13;65;57;
46240;PMS5003;31961;52.416;-0.732;2022-12-18T03:26:44;67;59;
46240;PMS5003;31961;52.416;-0.732;2022-12-18T03:29:17;59;51;
46240;PMS5003;31961;52.416;-0.732;2022-12-18T03:31:49;68;58;
46240;PMS5003;31961;52.416;-0.732;2022-12-18T03:34:22;66;55;
46240;PMS5003;31961;52.416;-0.732;2022-12-18T03:36:53;82;69;
46240;PMS5003;31961;52.416;-0.732;2022-12-18T03:39:21;66;59;
46240;PMS5003;31961;52.416;-0.732;2022-12-18T03:41:50;74;59;
46240;PMS5003;31961;52.416;-0.732;2022-12-18T03:44:23;73;61;
46240;PMS5003;31961;52.416;-0.732;2022-12-18T03:46:58;69;59;
46240;PMS5003;31961;52.416;-0.732;2022-12-18T03:49:33;73;60;
46240;PMS5003;31961;52.416;-0.732;2022-12-18T03:52:06;73;61;
46240;PMS5003;31961;52.416;-0.732;2022-12-18T03:54:37;73;57;
46240;PMS5003;31961;52.416;-0.732;2022-12-18T03:57:09;61;55;
46240;PMS5003;31961;52.416;-0.732;2022-12-18T03:59:41;72;56;
46240;PMS5003;31961;52.416;-0.732;2022-12-18T04:02:11;68;59;
46240;PMS5003;31961;52.416;-0.732;2022-12-18T04:04:40;70;55;
46240;PMS5003;31961;52.416;-0.732;2022-12-18T04:07:08;69;60;
46240;PMS5003;31961;52.416;-0.732;2022-12-18T04:09:36;67;58;
46240;PMS5003;31961;52.416;-0.732;2022-12-18T04:12:08;79;60;
46240;PMS5003;31961;52.416;-0.732;2022-12-18T04:14:35;60;51;
46240;PMS5003;31961;52.416;-0.732;2022-12-18T04:17:03;58;52;
46240;PMS5003;31961;52.416;-0.732;2022-12-18T04:19:30;71;58;
46240;PMS5003;31961;52.416;-0.732;2022-12-18T04:21:58;70;58;
46240;PMS5003;31961;52.416;-0.732;2022-12-18T04:24:25;62;53;
46240;PMS5003;31961;52.416;-0.732;2022-12-18T04:26:52;72;59;
46240;PMS5003;31961;52.416;-0.732;2022-12-18T04:29:19;67;54;
46240;PMS5003;31961;52.416;-0.732;2022-12-18T04:31:47;60;52;
46240;PMS5003;31961;52.416;-0.732;2022-12-18T04:34:14;74;55;
46240;PMS5003;31961;52.416;-0.732;2022-12-18T04:36:40;74;57;
46240;PMS5003;31961;52.416;-0.732;2022-12-18T04:39:08;71;55;
46240;PMS5003;31961;52.416;-0.732;2022-12-18T04:41:34;61;50;
46240;PMS5003;31961;52.416;-0.732;2022-12-18T04:44:02;70;59;
46240;PMS5003;31961;52.416;-0.732;2022-12-18T04:46:30;66;48;
46240;PMS5003;31961;52.416;-0.732;2022-12-18T04:48:57;73;63;
46240;PMS5003;31961;52.416;-0.732;2022-12-18T04:51:25;70;54;
46240;PMS5003;31961;52.416;-0.732;2022-12-18T04:53:52;62;51;
46240;PMS5003;31961;52.416;-0.732;2022-12-18T04:56:20;75;56;
46240;PMS5003;31961;52.416;-0.732;2022-12-18T04:58:47;63;53;
46240;PMS5003;31961;52.416;-0.732;2022-12-18T05:01:14;63;46;
46240;PMS5003;31961;52.416;-0.732;2022-12-18T05:03:43;57;49;
46240;PMS5003;31961;52.416;-0.732;2022-12-18T05:06:10;70;53;
46240;PMS5003;31961;52.416;-0.732;2022-12-18T05:08:38;72;52;
46240;PMS5003;31961;52.416;-0.732;2022-12-18T05:11:06;59;47;
46240;PMS5003;31961;52.416;-0.732;2022-12-18T05:13:35;67;49;
46240;PMS5003;31961;52.416;-0.732;2022-12-18T05:16:03;64;45;
46240;PMS5003;31961;52.416;-0.732;2022-12-18T05:18:31;51;43;
46240;PMS5003;31961;52.416;-0.732;2022-12-18T05:20:59;67;52;
46240;PMS5003;31961;52.416;-0.732;2022-12-18T05:23:27;66;51;
46240;PMS5003;31961;52.416;-0.732;2022-12-18T05:25:55;66;53;
46240;PMS5003;31961;52.416;-0.732;2022-12-18T05:28:24;70;49;
46240;PMS5003;31961;52.416;-0.732;2022-12-18T05:30:52;64;49;
46240;PMS5003;31961;52.416;-0.732;2022-12-18T05:33:22;66;54;
46240;PMS5003;31961;52.416;-0.732;2022-12-18T05:35:51;53;47;
46240;PMS5003;31961;52.416;-0.732;2022-12-18T05:38:19;58;48;
46240;PMS5003;31961;52.416;-0.732;2022-12-18T05:40:47;57;52;
46240;PMS5003;31961;52.416;-0.732;2022-12-18T05:43:15;55;44;
46240;PMS5003;31961;52.416;-0.732;2022-12-18T05:45:42;50;40;
46240;PMS5003;31961;52.416;-0.732;2022-12-18T05:48:12;61;45;
46240;PMS5003;31961;52.416;-0.732;2022-12-18T05:50:41;54;46;
46240;PMS5003;31961;52.416;-0.732;2022-12-18T05:53:10;54;48;
46240;PMS5003;31961;52.416;-0.732;2022-12-18T05:55:39;49;39;
46240;PMS5003;31961;52.416;-0.732;2022-12-18T05:58:09;60;47;
46240;PMS5003;31961;52.416;-0.732;2022-12-18T06:00:40;59;48;
46240;PMS5003;31961;52.416;-0.732;2022-12-18T06:03:08;50;40;
46240;PMS5003;31961;52.416;-0.732;2022-12-18T06:05:38;54;43;
46240;PMS5003;31961;52.416;-0.732;2022-12-18T06:08:07;67;47;
46240;PMS5003;31961;52.416;-0.732;2022-12-18T06:10:35;56;44;
46240;PMS5003;31961;52.416;-0.732;2022-12-18T06:13:02;56;49;
46240;PMS5003;31961;52.416;-0.732;2022-12-18T06:15:29;58;45;
46240;PMS5003;31961;52.416;-0.732;2022-12-18T06:17:56;48;39;
46240;PMS5003;31961;52.416;-0.732;2022-12-18T06:20:24;61;49;
46240;PMS5003;31961;52.416;-0.732;2022-12-18T06:22:51;54;43;
46240;PMS5003;31961;52.416;-0.732;2022-12-18T06:25:19;51;40;
46240;PMS5003;31961;52.416;-0.732;2022-12-18T06:27:47;53;41;
46240;PMS5003;31961;52.416;-0.732;2022-12-18T06:30:14;55;47;
46240;PMS5003;31961;52.416;-0.732;2022-12-18T06:32:41;58;44;
46240;PMS5003;31961;52.416;-0.732;2022-12-18T06:35:08;52;43;
46240;PMS5003;31961;52.416;-0.732;2022-12-18T06:37:36;55;45;
46240;PMS5003;31961;52.416;-0.732;2022-12-18T06:40:04;56;50;
46240;PMS5003;31961;52.416;-0.732;2022-12-18T06:42:32;55;41;
46240;PMS5003;31961;52.416;-0.732;2022-12-18T06:44:59;52;41;
46240;PMS5003;31961;52.416;-0.732;2022-12-18T06:47:26;51;43;
46240;PMS5003;31961;52.416;-0.732;2022-12-18T06:49:54;49;42;
46240;PMS5003;31961;52.416;-0.732;2022-12-18T06:52:21;61;48;
46240;PMS5003;31961;52.416;-0.732;2022-12-18T06:54:48;57;43;
46240;PMS5003;31961;52.416;-0.732;2022-12-18T06:57:16;48;38;
46240;PMS5003;31961;52.416;-0.732;2022-12-18T06:59:43;53;44;
46240;PMS5003;31961;52.416;-0.732;2022-12-18T07:02:11;48;45;
46240;PMS5003;31961;52.416;-0.732;2022-12-18T07:04:38;51;45;
46240;PMS5003;31961;52.416;-0.732;2022-12-18T07:07:05;46;40;
46240;PMS5003;31961;52.416;-0.732;2022-12-18T07:09:32;59;49;
46240;PMS5003;31961;52.416;-0.732;2022-12-18T07:12:00;50;44;
46240;PMS5003;31961;52.416;-0.732;2022-12-18T07:14:27;43;34;
46240;PMS5003;31961;52.416;-0.732;2022-12-18T07:16:54;56;41;
46240;PMS5003;31961;52.416;-0.732;2022-12-18T07:19:22;52;40;
46240;PMS5003;31961;52.416;-0.732;2022-12-18T07:21:49;55;43;
46240;PMS5003;31961;52.416;-0.732;2022-12-18T07:24:17;55;44;
46240;PMS5003;31961;52.416;-0.732;2022-12-18T07:26:45;43;33;
46240;PMS5003;31961;52.416;-0.732;2022-12-18T07:29:12;54;41;
46240;PMS5003;31961;52.416;-0.732;2022-12-18T07:31:40;59;44;
46240;PMS5003;31961;52.416;-0.732;2022-12-18T07:34:09;48;42;
46240;PMS5003;31961;52.416;-0.732;2022-12-18T07:36:37;56;42;
46240;PMS5003;31961;52.416;-0.732;2022-12-18T07:39:04;47;41;
46240;PMS5003;31961;52.416;-0.732;2022-12-18T07:41:31;67;53;
46240;PMS5003;31961;52.416;-0.732;2022-12-18T07:43:59;60;48;
46240;PMS5003;31961;52.416;-0.732;2022-12-18T07:46:26;62;48;
46240;PMS5003;31961;52.416;-0.732;2022-12-18T07:48:54;53;45;
46240;PMS5003;31961;52.416;-0.732;2022-12-18T07:51:21;60;49;
46240;PMS5003;31961;52.416;-0.732;2022-12-18T07:53:49;48;44;
46240;PMS5003;31961;52.416;-0.732;2022-12-18T07:56:16;47;43;
46240;PMS5003;31961;52.416;-0.732;2022-12-18T07:58:44;47;40;
46240;PMS5003;31961;52.416;-0.732;2022-12-18T08:01:11;50;41;
46240;PMS5003;31961;52.416;-0.732;2022-12-18T08:03:39;45;43;
46240;PMS5003;31961;52.416;-0.732;2022-12-18T08:06:09;46;42;
46240;PMS5003;31961;52.416;-0.732;2022-12-18T08:08:37;44;40;
46240;PMS5003;31961;52.416;-0.732;2022-12-18T08:11:04;53;45;
46240;PMS5003;31961;52.416;-0.732;2022-12-18T08:13:31;59;47;
46240;PMS5003;31961;52.416;-0.732;2022-12-18T08:15:59;47;40;
46240;PMS5003;31961;52.416;-0.732;2022-12-18T08:18:28;58;46;
46240;PMS5003;31961;52.416;-0.732;2022-12-18T08:20:56;60;45;
46240;PMS5003;31961;52.416;-0.732;2022-12-18T08:23:22;53;45;
46240;PMS5003;31961;52.416;-0.732;2022-12-18T08:25:50;68;58;
46240;PMS5003;31961;52.416;-0.732;2022-12-18T08:28:17;59;44;
46240;PMS5003;31961;52.416;-0.732;2022-12-18T08:30:44;59;53;
46240;PMS5003;31961;52.416;-0.732;2022-12-18T08:33:11;54;44;
46240;PMS5003;31961;52.416;-0.732;2022-12-18T08:35:39;49;45;
46240;PMS5003;31961;52.416;-0.732;2022-12-18T08:38:06;40;37;
46240;PMS5003;31961;52.416;-0.732;2022-12-18T08:40:34;56;46;
46240;PMS5003;31961;52.416;-0.732;2022-12-18T08:43:00;59;51;
46240;PMS5003;31961;52.416;-0.732;2022-12-18T08:45:28;50;42;
46240;PMS5003;31961;52.416;-0.732;2022-12-18T08:47:55;52;47;
46240;PMS5003;31961;52.416;-0.732;2022-12-18T08:50:23;56;40;
46240;PMS5003;31961;52.416;-0.732;2022-12-18T08:52:50;50;43;
46240;PMS5003;31961;52.416;-0.732;2022-12-18T08:55:17;57;44;
46240;PMS5003;31961;52.416;-0.732;2022-12-18T08:57:47;54;47;
46240;PMS5003;31961;52.416;-0.732;2022-12-18T09:00:15;52;43;
46240;PMS5003;31961;52.416;-0.732;2022-12-18T09:02:42;56;49;
46240;PMS5003;31961;52.416;-0.732;2022-12-18T09:05:10;54;44;
46240;PMS5003;31961;52.416;-0.732;2022-12-18T09:07:37;61;49;
46240;PMS5003;31961;52.416;-0.732;2022-12-18T09:10:05;53;42;
46240;PMS5003;31961;52.416;-0.732;2022-12-18T09:12:33;51;44;
46240;PMS5003;31961;52.416;-0.732;2022-12-18T09:15:00;50;43;
46240;PMS5003;31961;52.416;-0.732;2022-12-18T09:17:27;58;47;
46240;PMS5003;31961;52.416;-0.732;2022-12-18T09:19:55;53;47;
46240;PMS5003;31961;52.416;-0.732;2022-12-18T09:22:22;51;42;
46240;PMS5003;31961;52.416;-0.732;2022-12-18T09:24:49;54;47;
46240;PMS5003;31961;52.416;-0.732;2022-12-18T09:27:17;53;45;
46240;PMS5003;31961;52.416;-0.732;2022-12-18T09:29:44;57;50;
46240;PMS5003;31961;52.416;-0.732;2022-12-18T09:32:12;55;47;
46240;PMS5003;31961;52.416;-0.732;2022-12-18T09:34:39;54;50;
46240;PMS5003;31961;52.416;-0.732;2022-12-18T09:37:06;55;50;
46240;PMS5003;31961;52.416;-0.732;2022-12-18T09:39:33;51;43;
46240;PMS5003;31961;52.416;-0.732;2022-12-18T09:42:00;61;54;
46240;PMS5003;31961;52.416;-0.732;2022-12-18T09:44:29;59;42;
46240;PMS5003;31961;52.416;-0.732;2022-12-18T09:47:02;53;47;
46240;PMS5003;31961;52.416;-0.732;2022-12-18T09:49:34;57;53;
46240;PMS5003;31961;52.416;-0.732;2022-12-18T09:52:09;53;47;
46240;PMS5003;31961;52.416;-0.732;2022-12-18T09:54:43;46;43;
46240;PMS5003;31961;52.416;-0.732;2022-12-18T09:57:16;55;44;
46240;PMS5003;31961;52.416;-0.732;2022-12-18T09:59:47;65;54;
46240;PMS5003;31961;52.416;-0.732;2022-12-18T10:02:19;65;55;
46240;PMS5003;31961;52.416;-0.732;2022-12-18T10:04:55;59;52;
46240;PMS5003;31961;52.416;-0.732;2022-12-18T10:07:33;57;48;
46240;PMS5003;31961;52.416;-0.732;2022-12-18T10:10:10;43;39;
46240;PMS5003;31961;52.416;-0.732;2022-12-18T10:12:47;51;46;
46240;PMS5003;31961;52.416;-0.732;2022-12-18T10:15:22;48;42;
46240;PMS5003;31961;52.416;-0.732;2022-12-18T10:17:58;55;50;
46240;PMS5003;31961;52.416;-0.732;2022-12-18T10:20:34;47;44;
46240;PMS5003;31961;52.416;-0.732;2022-12-18T10:23:11;56;47;
46240;PMS5003;31961;52.416;-0.732;2022-12-18T10:25:48;54;47;
46240;PMS5003;31961;52.416;-0.732;2022-12-18T10:28:20;50;44;
46240;PMS5003;31961;52.416;-0.732;2022-12-18T10:30:49;52;43;
46240;PMS5003;31961;52.416;-0.732;2022-12-18T10:33:17;60;47;
46240;PMS5003;31961;52.416;-0.732;2022-12-18T10:35:48;49;41;
46240;PMS5003;31961;52.416;-0.732;2022-12-18T10:38:21;50;42;
46240;PMS5003;31961;52.416;-0.732;2022-12-18T10:40:52;47;43;
46240;PMS5003;31961;52.416;-0.732;2022-12-18T10:43:23;57;49;
46240;PMS5003;31961;52.416;-0.732;2022-12-18T10:46:01;51;44;
46240;PMS5003;31961;52.416;-0.732;2022-12-18T10:48:32;56;46;
46240;PMS5003;31961;52.416;-0.732;2022-12-18T10:51:02;56;46;
46240;PMS5003;31961;52.416;-0.732;2022-12-18T10:53:29;53;42;
46240;PMS5003;31961;52.416;-0.732;2022-12-18T10:56:00;43;37;
46240;PMS5003;31961;52.416;-0.732;2022-12-18T10:58:31;47;40;
46240;PMS5003;31961;52.416;-0.732;2022-12-18T11:01:04;52;47;
46240;PMS5003;31961;52.416;-0.732;2022-12-18T11:03:34;52;46;
46240;PMS5003;31961;52.416;-0.732;2022-12-18T11:06:05;52;40;
46240;PMS5003;31961;52.416;-0.732;2022-12-18T11:08:35;53;40;
46240;PMS5003;31961;52.416;-0.732;2022-12-18T11:11:02;46;39;
46240;PMS5003;31961;52.416;-0.732;2022-12-18T11:13:33;43;40;
46240;PMS5003;31961;52.416;-0.732;2022-12-18T11:16:01;54;49;
46240;PMS5003;31961;52.416;-0.732;2022-12-18T11:18:29;47;46;
46240;PMS5003;31961;52.416;-0.732;2022-12-18T11:21:00;50;42;
46240;PMS5003;31961;52.416;-0.732;2022-12-18T11:23:33;52;42;
46240;PMS5003;31961;52.416;-0.732;2022-12-18T11:26:01;60;49;
46240;PMS5003;31961;52.416;-0.732;2022-12-18T11:28:38;49;46;
46240;PMS5003;31961;52.416;-0.732;2022-12-18T11:31:14;54;46;
46240;PMS5003;31961;52.416;-0.732;2022-12-18T11:33:46;47;42;
46240;PMS5003;31961;52.416;-0.732;2022-12-18T11:36:20;52;44;
46240;PMS5003;31961;52.416;-0.732;2022-12-18T11:38:49;56;47;
46240;PMS5003;31961;52.416;-0.732;2022-12-18T11:41:21;61;50;
46240;PMS5003;31961;52.416;-0.732;2022-12-18T11:43:55;48;41;
46240;PMS5003;31961;52.416;-0.732;2022-12-18T11:46:26;56;44;
46240;PMS5003;31961;52.416;-0.732;2022-12-18T11:49:01;49;40;
46240;PMS5003;31961;52.416;-0.732;2022-12-18T17:13:41;35;34;
46240;PMS5003;31961;52.416;-0.732;2022-12-18T17:16:09;35;33;
46240;PMS5003;31961;52.416;-0.732;2022-12-18T17:18:36;31;28;
46240;PMS5003;31961;52.416;-0.732;2022-12-18T17:21:04;33;31;
46240;PMS5003;31961;52.416;-0.732;2022-12-18T17:23:32;31;30;
46240;PMS5003;31961;52.416;-0.732;2022-12-18T17:25:59;33;30;
46240;PMS5003;31961;52.416;-0.732;2022-12-18T17:28:27;34;32;
46240;PMS5003;31961;52.416;-0.732;2022-12-18T17:30:55;37;32;
46240;PMS5003;31961;52.416;-0.732;2022-12-18T17:33:23;31;29;
46240;PMS5003;31961;52.416;-0.732;2022-12-18T17:35:50;37;32;
46240;PMS5003;31961;52.416;-0.732;2022-12-18T17:38:17;34;30;
46240;PMS5003;31961;52.416;-0.732;2022-12-18T17:40:44;36;30;
46240;PMS5003;31961;52.416;-0.732;2022-12-18T17:43:11;31;30;
46240;PMS5003;31961;52.416;-0.732;2022-12-18T17:45:38;34;29;
46240;PMS5003;31961;52.416;-0.732;2022-12-18T17:48:07;34;33;
46240;PMS5003;31961;52.416;-0.732;2022-12-18T17:50:36;37;31;
46240;PMS5003;31961;52.416;-0.732;2022-12-18T17:53:02;31;28;
46240;PMS5003;31961;52.416;-0.732;2022-12-18T17:55:30;36;34;
46240;PMS5003;31961;52.416;-0.732;2022-12-18T17:57:57;32;31;
46240;PMS5003;31961;52.416;-0.732;2022-12-18T18:00:24;34;31;
46240;PMS5003;31961;52.416;-0.732;2022-12-18T18:02:52;34;32;
46240;PMS5003;31961;52.416;-0.732;2022-12-18T18:05:19;37;34;
46240;PMS5003;31961;52.416;-0.732;2022-12-18T18:07:47;34;32;
46240;PMS5003;31961;52.416;-0.732;2022-12-18T18:10:15;33;29;
46240;PMS5003;31961;52.416;-0.732;2022-12-18T18:12:42;35;30;
46240;PMS5003;31961;52.416;-0.732;2022-12-18T18:15:09;37;35;
46240;PMS5003;31961;52.416;-0.732;2022-12-18T18:17:36;34;33;
46240;PMS5003;31961;52.416;-0.732;2022-12-18T18:20:04;37;31;
46240;PMS5003;31961;52.416;-0.732;2022-12-18T18:22:32;39;34;
46240;PMS5003;31961;52.416;-0.732;2022-12-18T18:24:59;35;33;
46240;PMS5003;31961;52.416;-0.732;2022-12-18T18:27:26;35;34;
46240;PMS5003;31961;52.416;-0.732;2022-12-18T18:29:53;32;30;
46240;PMS5003;31961;52.416;-0.732;2022-12-18T18:32:21;36;32;
46240;PMS5003;31961;52.416;-0.732;2022-12-18T18:34:48;33;30;
46240;PMS5003;31961;52.416;-0.732;2022-12-18T18:37:16;34;32;
46240;PMS5003;31961;52.416;-0.732;2022-12-18T18:39:43;35;31;
46240;PMS5003;31961;52.416;-0.732;2022-12-18T18:42:10;34;30;
46240;PMS5003;31961;52.416;-0.732;2022-12-18T18:44:37;28;27;
46240;PMS5003;31961;52.416;-0.732;2022-12-18T18:47:03;36;35;
46240;PMS5003;31961;52.416;-0.732;2022-12-18T18:49:31;31;29;
46240;PMS5003;31961;52.416;-0.732;2022-12-18T18:51:57;34;33;
46240;PMS5003;31961;52.416;-0.732;2022-12-18T18:54:25;37;35;
46240;PMS5003;31961;52.416;-0.732;2022-12-18T18:56:52;31;29;
46240;PMS5003;31961;52.416;-0.732;2022-12-18T18:59:20;36;31;
46240;PMS5003;31961;52.416;-0.732;2022-12-18T19:01:47;33;31;
46240;PMS5003;31961;52.416;-0.732;2022-12-18T19:04:14;30;29;
46240;PMS5003;31961;52.416;-0.732;2022-12-18T19:06:41;32;30;
46240;PMS5003;31961;52.416;-0.732;2022-12-18T19:09:09;30;29;
46240;PMS5003;31961;52.416;-0.732;2022-12-18T19:11:36;25;24;
46240;PMS5003;31961;52.416;-0.732;2022-12-18T19:14:03;32;30;
46240;PMS5003;31961;52.416;-0.732;2022-12-18T19:16:33;29;28;
46240;PMS5003;31961;52.416;-0.732;2022-12-18T19:19:02;27;27;
46240;PMS5003;31961;52.416;-0.732;2022-12-18T19:21:30;32;27;
46240;PMS5003;31961;52.416;-0.732;2022-12-18T19:23:57;35;34;
46240;PMS5003;31961;52.416;-0.732;2022-12-18T19:26:25;32;30;
46240;PMS5003;31961;52.416;-0.732;2022-12-18T19:28:52;35;30;
46240;PMS5003;31961;52.416;-0.732;2022-12-18T19:31:20;27;27;
46240;PMS5003;31961;52.416;-0.732;2022-12-18T19:33:48;33;32;
46240;PMS5003;31961;52.416;-0.732;2022-12-18T19:36:17;29;27;
46240;PMS5003;31961;52.416;-0.732;2022-12-18T19:38:46;29;26;
46240;PMS5003;31961;52.416;-0.732;2022-12-18T19:41:14;29;28;
46240;PMS5003;31961;52.416;-0.732;2022-12-18T19:43:43;31;28;
46240;PMS5003;31961;52.416;-0.732;2022-12-18T19:46:11;27;25;
46240;PMS5003;31961;52.416;-0.732;2022-12-18T19:48:40;30;28;
46240;PMS5003;31961;52.416;-0.732;2022-12-18T19:51:10;33;33;
46240;PMS5003;31961;52.416;-0.732;2022-12-18T19:53:40;36;32;
46240;PMS5003;31961;52.416;-0.732;2022-12-18T19:56:07;29;29;
46240;PMS5003;31961;52.416;-0.732;2022-12-18T19:58:36;31;29;
46240;PMS5003;31961;52.416;-0.732;2022-12-18T20:01:03;25;25;
46240;PMS5003;31961;52.416;-0.732;2022-12-18T20:03:31;25;23;
46240;PMS5003;31961;52.416;-0.732;2022-12-18T20:06:06;29;25;
46240;PMS5003;31961;52.416;-0.732;2022-12-18T20:08:34;30;28;
46240;PMS5003;31961;52.416;-0.732;2022-12-18T20:11:02;26;24;
46240;PMS5003;31961;52.416;-0.732;2022-12-18T20:13:30;25;23;
46240;PMS5003;31961;52.416;-0.732;2022-12-18T20:15:57;30;29;
46240;PMS5003;31961;52.416;-0.732;2022-12-18T20:18:25;27;26;
46240;PMS5003;31961;52.416;-0.732;2022-12-18T20:20:52;28;25;
46240;PMS5003;31961;52.416;-0.732;2022-12-18T20:23:19;28;27;
46240;PMS5003;31961;52.416;-0.732;2022-12-18T20:25:47;23;23;
46240;PMS5003;31961;52.416;-0.732;2022-12-18T20:28:14;27;27;
46240;PMS5003;31961;52.416;-0.732;2022-12-18T20:30:41;23;23;
46240;PMS5003;31961;52.416;-0.732;2022-12-18T20:33:08;24;22;
46240;PMS5003;31961;52.416;-0.732;2022-12-18T20:35:35;28;24;
46240;PMS5003;31961;52.416;-0.732;2022-12-18T20:38:02;26;26;
46240;PMS5003;31961;52.416;-0.732;2022-12-18T20:40:30;28;27;
46240;PMS5003;31961;52.416;-0.732;2022-12-18T20:42:57;27;26;
46240;PMS5003;31961;52.416;-0.732;2022-12-18T20:45:24;27;25;
46240;PMS5003;31961;52.416;-0.732;2022-12-18T20:47:53;27;25;
46240;PMS5003;31961;52.416;-0.732;2022-12-18T20:50:20;25;24;
46240;PMS5003;31961;52.416;-0.732;2022-12-18T20:52:48;24;23;
46240;PMS5003;31961;52.416;-0.732;2022-12-18T20:55:15;21;20;
46240;PMS5003;31961;52.416;-0.732;2022-12-18T20:57:42;23;19;
46240;PMS5003;31961;52.416;-0.732;2022-12-18T21:00:10;20;19;
46240;PMS5003;31961;52.416;-0.732;2022-12-18T21:02:38;27;26;
46240;PMS5003;31961;52.416;-0.732;2022-12-18T21:05:05;28;25;
46240;PMS5003;31961;52.416;-0.732;2022-12-18T21:07:33;26;24;
46240;PMS5003;31961;52.416;-0.732;2022-12-18T21:10:00;22;21;
46240;PMS5003;31961;52.416;-0.732;2022-12-18T21:12:27;21;19;
46240;PMS5003;31961;52.416;-0.732;2022-12-18T21:14:54;21;20;
46240;PMS5003;31961;52.416;-0.732;2022-12-18T21:17:22;23;22;
46240;PMS5003;31961;52.416;-0.732;2022-12-18T21:19:49;20;20;
46240;PMS5003;31961;52.416;-0.732;2022-12-18T21:22:17;22;21;
46240;PMS5003;31961;52.416;-0.732;2022-12-18T21:24:44;19;19;
46240;PMS5003;31961;52.416;-0.732;2022-12-18T21:27:11;18;17;
46240;PMS5003;31961;52.416;-0.732;2022-12-18T21:29:38;15;15;
46240;PMS5003;31961;52.416;-0.732;2022-12-18T21:32:04;17;16;
46240;PMS5003;31961;52.416;-0.732;2022-12-18T21:34:31;18;16;